Time;durP1;ratioP1;P1;durP2;ratioP2;P2;SDS_P1;SDS_P2;PMS_P1;PMS_P2;Temp;Humidity;BMP_temperature;BMP_pressure;BME280_temperature;BME280_humidity;BME280_pressure;Samples;Min_cycle;Max_cycle;Signal;HPM_P1;HPM_P2
2022/12/14 00:01:51;;;;;;;16.45;10.13;;;-6.50;99.90;;;;;;5008199;28;20046;-73
2022/12/14 00:04:19;;;;;;;9.70;8.50;;;-6.50;99.90;;;;;;5007329;28;20049;-74
2022/12/14 00:06:47;;;;;;;3.60;3.38;;;-6.50;99.90;;;;;;5004033;28;20041;-74
2022/12/14 00:09:15;;;;;;;10.35;9.32;;;-6.50;99.90;;;;;;5002949;28;20061;-73
2022/12/14 00:11:42;;;;;;;14.60;13.05;;;-6.50;99.90;;;;;;4988539;28;20139;-73
2022/12/14 00:14:10;;;;;;;5.35;4.95;;;-6.40;99.90;;;;;;4988903;28;20041;-74
2022/12/14 00:16:37;;;;;;;17.67;15.65;;;-6.40;99.90;;;;;;4996110;28;20054;-73
2022/12/14 00:19:05;;;;;;;11.10;10.00;;;-6.40;99.90;;;;;;4990065;28;20050;-73
2022/12/14 00:21:32;;;;;;;16.33;12.55;;;-6.40;99.90;;;;;;4989486;28;20458;-73
2022/12/14 00:24:00;;;;;;;18.17;11.05;;;-6.50;99.90;;;;;;4998814;28;20662;-74
2022/12/14 00:26:30;;;;;;;9.27;6.05;;;-6.50;99.90;;;;;;5011202;28;20429;-73
2022/12/14 00:29:00;;;;;;;15.73;10.50;;;-6.50;99.90;;;;;;5011047;28;20428;-73
2022/12/14 00:31:29;;;;;;;13.73;11.75;;;-6.50;99.90;;;;;;5010928;28;20057;-73
2022/12/14 00:33:58;;;;;;;12.95;11.70;;;-6.50;99.90;;;;;;5011286;28;20057;-73
2022/12/14 00:36:25;;;;;;;11.55;8.68;;;-6.50;99.90;;;;;;5011951;28;20037;-73
2022/12/14 00:38:53;;;;;;;14.43;8.35;;;-6.60;99.90;;;;;;5013008;28;20061;-73
2022/12/14 00:41:20;;;;;;;18.15;7.50;;;-6.50;99.90;;;;;;5010091;28;20042;-73
2022/12/14 00:43:48;;;;;;;7.28;6.65;;;-6.50;99.90;;;;;;5010658;28;20069;-73
2022/12/14 00:46:16;;;;;;;17.65;11.02;;;-6.50;99.90;;;;;;5010767;28;20046;-73
2022/12/14 00:48:45;;;;;;;8.52;7.22;;;-6.50;99.90;;;;;;5012334;28;20049;-73
2022/12/14 00:51:13;;;;;;;8.65;7.53;;;-6.50;99.90;;;;;;5008261;28;20486;-73
2022/12/14 00:53:43;;;;;;;24.35;10.68;;;-6.60;99.90;;;;;;4991702;28;20046;-73
2022/12/14 00:56:11;;;;;;;5.90;5.47;;;-6.60;99.90;;;;;;4990560;28;20061;-74
2022/12/14 00:58:38;;;;;;;8.40;7.40;;;-6.60;99.90;;;;;;4991290;28;20406;-73
2022/12/14 01:01:13;;;;;;;24.10;11.27;;;-6.50;99.90;;;;;;4991923;28;20058;-73
2022/12/14 01:03:41;;;;;;;16.40;11.68;;;-6.50;99.90;;;;;;4991681;28;20065;-74
2022/12/14 01:06:20;;;;;;;22.00;13.48;;;-6.50;99.90;;;;;;4992251;28;20050;-73
2022/12/14 01:08:48;;;;;;;14.30;12.77;;;-6.50;99.90;;;;;;4991382;28;20054;-73
2022/12/14 01:11:15;;;;;;;15.25;10.93;;;-6.40;99.90;;;;;;4991621;28;20402;-74
2022/12/14 01:13:43;;;;;;;2.38;2.28;;;-6.40;99.90;;;;;;4990328;28;20050;-74
2022/12/14 01:16:16;;;;;;;24.45;13.57;;;-6.40;99.90;;;;;;4990073;28;20418;-73
2022/12/14 01:18:44;;;;;;;12.93;9.18;;;-6.40;99.90;;;;;;4991001;28;20397;-73
2022/12/14 01:21:11;;;;;;;9.85;8.85;;;-6.40;99.90;;;;;;5023987;28;20053;-73
2022/12/14 01:23:39;;;;;;;17.08;8.88;;;-6.40;99.90;;;;;;5030314;28;20049;-74
2022/12/14 01:26:06;;;;;;;15.60;10.43;;;-6.40;99.90;;;;;;5031096;28;20409;-74
2022/12/14 01:28:34;;;;;;;5.65;5.07;;;-6.40;99.90;;;;;;5028398;28;20065;-74
2022/12/14 01:31:26;;;;;;;8.38;7.22;;;-6.40;99.90;;;;;;5030808;28;20076;-74
2022/12/14 01:33:54;;;;;;;18.73;9.73;;;-6.40;99.90;;;;;;5029291;28;20052;-73
2022/12/14 01:36:25;;;;;;;14.95;10.38;;;-6.30;99.90;;;;;;5027967;28;20057;-73
2022/12/14 01:38:55;;;;;;;7.00;6.32;;;-6.40;99.90;;;;;;5018261;28;20045;-73
2022/12/14 01:41:26;;;;;;;9.05;8.20;;;-6.40;99.90;;;;;;5009048;28;20042;-74
2022/12/14 01:43:56;;;;;;;12.80;10.35;;;-6.40;99.90;;;;;;5008243;28;20037;-74
2022/12/14 01:46:33;;;;;;;17.75;8.68;;;-6.40;99.90;;;;;;5009907;28;20405;-74
2022/12/14 01:49:11;;;;;;;23.33;11.10;;;-6.30;99.90;;;;;;5010292;28;20071;-74
2022/12/14 01:51:45;;;;;;;15.80;12.57;;;-6.30;99.90;;;;;;5005504;28;20058;-74
2022/12/14 01:54:14;;;;;;;18.67;10.43;;;-6.40;99.90;;;;;;4991182;28;20053;-74
2022/12/14 01:56:44;;;;;;;12.77;11.65;;;-6.30;99.90;;;;;;5006159;28;20054;-74
2022/12/14 01:59:20;;;;;;;15.75;10.00;;;-6.30;99.90;;;;;;4990872;28;20061;-73
2022/12/14 02:01:49;;;;;;;22.23;10.50;;;-6.30;99.90;;;;;;4989031;28;20054;-73
2022/12/14 02:04:18;;;;;;;18.65;10.60;;;-6.30;99.90;;;;;;4990619;28;20053;-74
2022/12/14 02:06:49;;;;;;;12.57;11.38;;;-6.30;99.90;;;;;;4990243;28;20051;-74
2022/12/14 02:09:20;;;;;;;15.82;11.30;;;-6.30;99.90;;;;;;4994371;28;20429;-74
2022/12/14 02:11:55;;;;;;;17.25;8.73;;;-6.20;99.90;;;;;;5008533;28;20048;-74
2022/12/14 02:14:23;;;;;;;17.08;9.02;;;-6.20;99.90;;;;;;5008124;28;20061;-74
2022/12/14 02:16:53;;;;;;;14.38;11.27;;;-6.20;99.90;;;;;;5008645;28;20429;-74
2022/12/14 02:19:21;;;;;;;20.92;12.02;;;-6.20;99.90;;;;;;5010460;28;20053;-74
2022/12/14 02:22:33;;;;;;;6.60;6.10;;;-6.20;99.90;;;;;;5009577;28;20131;-74
2022/12/14 02:25:19;;;;;;;;;;;-6.20;99.90;;;;;;4967982;28;20054;-74
2022/12/14 02:28:11;;;;;;;9.15;8.35;;;-6.10;99.90;;;;;;5003673;28;19921;-73
2022/12/14 02:30:40;;;;;;;11.43;9.25;;;-6.10;99.90;;;;;;5007939;28;20050;-74
2022/12/14 02:33:45;;;;;;;23.35;9.45;;;-6.10;99.90;;;;;;5009256;28;20052;-74
2022/12/14 02:36:48;;;;;;;8.30;7.30;;;-6.10;99.90;;;;;;5009686;28;20046;-74
2022/12/14 02:39:41;;;;;;;12.88;11.18;;;-6.10;99.90;;;;;;4995892;28;20060;-74
2022/12/14 02:42:29;;;;;;;9.13;8.43;;;-6.10;99.90;;;;;;5006883;28;20049;-74
2022/12/14 02:45:19;;;;;;;9.85;6.25;;;-6.10;99.90;;;;;;5008562;28;20671;-74
2022/12/14 02:48:01;;;;;;;5.25;4.57;;;-6.10;99.90;;;;;;5007710;28;20746;-73
2022/12/14 02:50:32;;;;;;;20.35;12.25;;;-6.10;99.90;;;;;;5009639;28;20553;-74
2022/12/14 02:53:28;;;;;;;18.15;11.38;;;-6.20;99.90;;;;;;5007655;28;20278;-74
2022/12/14 02:56:00;;;;;;;12.32;8.35;;;-6.20;99.90;;;;;;5008066;28;20037;-74
2022/12/14 02:58:39;;;;;;;8.50;7.60;;;-6.10;99.90;;;;;;5008614;28;20049;-74
2022/12/14 03:01:14;;;;;;;16.85;13.15;;;-6.00;99.90;;;;;;5007700;28;20057;-73
2022/12/14 03:03:42;;;;;;;17.23;11.27;;;-6.10;99.90;;;;;;5009008;28;20421;-74
2022/12/14 03:06:24;;;;;;;13.90;9.70;;;-6.10;99.90;;;;;;5009676;28;20061;-74
2022/12/14 03:09:02;;;;;;;4.18;3.95;;;-6.10;99.90;;;;;;5007748;28;20054;-74
2022/12/14 03:11:55;;;;;;;9.18;7.50;;;-6.10;99.90;;;;;;5007307;28;20062;-74
2022/12/14 03:14:29;;;;;;;12.43;6.95;;;-6.20;99.90;;;;;;5008052;28;20042;-74
2022/12/14 03:17:04;;;;;;;20.40;13.60;;;-6.10;99.90;;;;;;5008863;28;20435;-73
2022/12/14 03:19:37;;;;;;;4.13;3.80;;;-6.10;99.90;;;;;;5011778;28;20050;-74
2022/12/14 03:22:13;;;;;;;20.50;10.98;;;-6.10;99.90;;;;;;5027749;28;20540;-74
2022/12/14 03:24:53;;;;;;;15.85;9.77;;;-6.00;99.90;;;;;;5026870;28;20074;-74
2022/12/14 03:27:29;;;;;;;16.38;13.38;;;-6.00;99.90;;;;;;5029148;28;20500;-74
2022/12/14 03:30:01;;;;;;;21.52;12.70;;;-6.00;99.90;;;;;;5026837;28;20487;-74
2022/12/14 03:32:31;;;;;;;13.38;11.95;;;-6.00;99.90;;;;;;5027252;28;20060;-74
2022/12/14 03:35:00;;;;;;;11.93;9.77;;;-6.00;99.90;;;;;;5028951;28;20057;-74
2022/12/14 03:37:44;;;;;;;7.03;6.40;;;-5.90;99.90;;;;;;5027110;28;20056;-74
2022/12/14 03:40:26;;;;;;;4.18;3.88;;;-5.90;99.90;;;;;;4988705;28;20421;-74
2022/12/14 03:43:12;;;;;;;6.13;5.35;;;-6.00;99.90;;;;;;4989665;28;20053;-73
2022/12/14 03:45:45;;;;;;;12.45;10.70;;;-6.00;99.90;;;;;;4988903;28;20057;-73
2022/12/14 03:48:25;;;;;;;18.10;12.45;;;-6.00;99.90;;;;;;4989015;28;20042;-73
2022/12/14 03:51:11;;;;;;;9.82;8.75;;;-6.00;99.90;;;;;;4988937;28;20723;-74
2022/12/14 03:53:49;;;;;;;12.27;8.82;;;-6.00;99.90;;;;;;5008348;28;20046;-74
2022/12/14 03:56:28;;;;;;;12.75;9.18;;;-5.90;99.90;;;;;;5008512;28;20446;-73
2022/12/14 03:59:11;;;;;;;14.20;9.70;;;-5.90;99.90;;;;;;5007183;28;20413;-73
2022/12/14 04:02:02;;;;;;;16.58;11.95;;;-5.90;99.90;;;;;;5010825;28;20417;-73
2022/12/14 04:04:45;;;;;;;9.48;8.02;;;-6.00;99.90;;;;;;5012532;28;20053;-74
2022/12/14 04:07:29;;;;;;;14.68;10.05;;;-6.00;99.90;;;;;;5011823;28;20065;-74
2022/12/14 04:18:58;;;;;;;15.75;9.70;;;-6.00;99.90;;;;;;5012716;28;20409;-74
2022/12/14 04:21:52;;;;;;;14.32;4.65;;;-5.90;99.90;;;;;;5030699;28;20049;-74
2022/12/14 04:27:31;;;;;;;17.52;11.82;;;-5.90;99.90;;;;;;5032212;28;20056;-74
2022/12/14 04:30:00;;;;;;;17.33;13.68;;;-5.90;99.90;;;;;;5030123;28;20061;-74
2022/12/14 04:32:39;;;;;;;15.38;10.43;;;-5.90;99.90;;;;;;5031695;28;20042;-74
2022/12/14 04:35:30;;;;;;;20.50;11.57;;;-5.80;99.90;;;;;;4993984;28;20674;-74
2022/12/14 04:38:12;;;;;;;14.70;8.82;;;-5.90;99.90;;;;;;4990912;28;20453;-74
2022/12/14 04:41:04;;;;;;;14.60;11.40;;;-5.90;99.90;;;;;;5001864;28;20421;-73
2022/12/14 04:43:37;;;;;;;19.80;13.35;;;-5.90;99.90;;;;;;5011269;28;20512;-74
2022/12/14 04:46:10;;;;;;;15.38;10.23;;;-5.80;99.90;;;;;;5011443;28;20060;-74
2022/12/14 04:48:58;;;;;;;15.90;12.43;;;-5.80;99.90;;;;;;5002112;28;20045;-74
2022/12/14 04:51:43;;;;;;;25.23;9.63;;;-5.80;99.90;;;;;;4993482;28;20057;-74
2022/12/14 04:54:46;;;;;;;17.65;12.27;;;-5.80;99.90;;;;;;5028831;28;20406;-74
2022/12/14 04:57:30;;;;;;;12.65;10.98;;;-5.80;99.90;;;;;;4990219;28;20070;-74
2022/12/14 05:00:00;;;;;;;15.50;9.60;;;-5.70;99.90;;;;;;4994717;28;20441;-74
2022/12/14 05:02:44;;;;;;;17.08;10.43;;;-5.70;99.90;;;;;;4995346;28;20046;-74
2022/12/14 05:05:24;;;;;;;6.40;5.70;;;-5.70;99.90;;;;;;5005459;28;20432;-73
2022/12/14 05:08:06;;;;;;;17.23;11.38;;;-5.70;99.90;;;;;;5001775;28;20063;-74
2022/12/14 05:10:55;;;;;;;18.15;10.80;;;-5.70;99.90;;;;;;5011757;28;20046;-73
2022/12/14 05:13:47;;;;;;;12.75;9.93;;;-5.70;99.90;;;;;;4998211;28;20061;-74
2022/12/14 05:16:18;;;;;;;13.30;10.77;;;-5.70;99.90;;;;;;5010525;28;20413;-74
2022/12/14 05:18:46;;;;;;;15.95;11.02;;;-5.60;99.90;;;;;;4993471;28;20053;-74
2022/12/14 05:24:02;;;;;;;21.98;10.48;;;-5.60;99.90;;;;;;5005583;28;20406;-74
2022/12/14 05:26:30;;;;;;;6.78;6.15;;;-5.60;99.90;;;;;;5003332;28;20065;-74
2022/12/14 05:28:58;;;;;;;11.55;9.45;;;-5.60;99.90;;;;;;4993433;28;20520;-74
2022/12/14 05:31:25;;;;;;;6.78;6.15;;;-5.60;99.90;;;;;;4990643;28;20050;-74
2022/12/14 05:33:53;;;;;;;6.35;5.93;;;-5.60;99.90;;;;;;4989513;28;20061;-74
2022/12/14 05:36:20;;;;;;;15.98;9.70;;;-5.60;99.90;;;;;;4983960;28;20068;-74
2022/12/14 05:38:48;;;;;;;10.75;9.43;;;-5.60;99.90;;;;;;5000514;28;20057;-74
2022/12/14 05:41:16;;;;;;;13.50;9.57;;;-5.60;99.90;;;;;;4995892;28;20057;-74
2022/12/14 05:43:55;;;;;;;13.43;7.72;;;-5.60;99.90;;;;;;5006204;28;20073;-74
2022/12/14 05:46:26;;;;;;;14.05;11.68;;;-5.60;99.90;;;;;;4998071;28;20405;-74
2022/12/14 05:48:54;;;;;;;14.93;12.05;;;-5.60;99.90;;;;;;5016123;28;20386;-74
2022/12/14 05:51:21;;;;;;;14.40;11.65;;;-5.60;99.90;;;;;;5020841;28;20050;-74
2022/12/14 05:53:49;;;;;;;16.08;12.98;;;-5.60;99.90;;;;;;5008856;28;20046;-74
2022/12/14 05:56:17;;;;;;;9.57;7.78;;;-5.60;99.90;;;;;;5009296;28;20053;-74
2022/12/14 05:58:48;;;;;;;18.77;12.00;;;-5.60;99.90;;;;;;5009713;28;20050;-74
2022/12/14 06:01:17;;;;;;;15.60;9.88;;;-5.60;99.90;;;;;;5009916;28;20131;-74
2022/12/14 06:03:46;;;;;;;12.55;9.07;;;-5.60;99.90;;;;;;5008668;28;20057;-75
2022/12/14 06:06:15;;;;;;;13.25;9.18;;;-5.70;99.90;;;;;;5010102;28;20446;-75
2022/12/14 06:08:44;;;;;;;9.75;8.90;;;-5.70;99.90;;;;;;5008600;28;20405;-74
2022/12/14 06:11:18;;;;;;;25.10;12.63;;;-5.70;99.90;;;;;;5010100;28;20050;-74
2022/12/14 06:13:45;;;;;;;19.58;12.52;;;-5.70;99.90;;;;;;5008755;28;20049;-75
2022/12/14 06:16:19;;;;;;;11.82;8.50;;;-5.70;99.90;;;;;;5009915;28;20072;-74
2022/12/14 06:18:55;;;;;;;16.80;10.88;;;-5.60;99.90;;;;;;5010584;28;20285;-73
2022/12/14 06:21:28;;;;;;;12.23;10.98;;;-5.60;99.90;;;;;;5027132;28;20052;-73
2022/12/14 06:23:56;;;;;;;16.00;10.23;;;-5.60;99.90;;;;;;5028579;28;20057;-74
2022/12/14 06:26:25;;;;;;;17.80;12.10;;;-5.60;99.90;;;;;;5028828;28;20086;-74
2022/12/14 06:28:55;;;;;;;9.75;8.77;;;-5.60;99.90;;;;;;5027579;28;20642;-74
2022/12/14 06:31:30;;;;;;;12.27;10.63;;;-5.60;99.90;;;;;;5029716;28;20046;-74
2022/12/14 06:34:02;;;;;;;15.75;10.68;;;-5.60;99.90;;;;;;5027312;28;20068;-74
2022/12/14 06:36:32;;;;;;;17.75;11.73;;;-5.60;99.90;;;;;;5027426;28;20056;-74
2022/12/14 06:39:10;;;;;;;13.70;10.93;;;-5.50;99.90;;;;;;5016847;28;20057;-74
2022/12/14 06:41:39;;;;;;;25.92;9.90;;;-5.50;99.90;;;;;;5008675;28;20050;-73
2022/12/14 06:44:10;;;;;;;18.95;10.35;;;-5.50;99.90;;;;;;5007673;28;20052;-74
2022/12/14 06:46:38;;;;;;;20.90;11.68;;;-5.50;99.90;;;;;;5008560;28;20662;-74
2022/12/14 06:49:05;;;;;;;18.15;11.00;;;-5.50;99.90;;;;;;5008973;28;20050;-74
2022/12/14 06:51:40;;;;;;;13.98;11.35;;;-5.40;99.90;;;;;;5009199;28;20046;-74
2022/12/14 06:54:12;;;;;;;18.42;12.38;;;-5.40;99.90;;;;;;5009625;28;20054;-73
2022/12/14 06:56:40;;;;;;;12.43;10.15;;;-5.40;99.90;;;;;;5009407;28;20694;-74
2022/12/14 06:59:08;;;;;;;15.30;10.88;;;-5.40;99.90;;;;;;5008160;28;20054;-74
2022/12/14 07:01:37;;;;;;;21.85;11.82;;;-5.30;99.90;;;;;;5007046;28;20053;-74
2022/12/14 07:04:09;;;;;;;10.32;9.30;;;-5.30;99.90;;;;;;5008848;28;20049;-73
2022/12/14 07:06:39;;;;;;;13.85;10.85;;;-5.30;99.90;;;;;;5009261;28;20049;-74
2022/12/14 07:09:12;;;;;;;15.37;9.93;;;-5.30;99.90;;;;;;5007642;28;20053;-74
2022/12/14 07:11:40;;;;;;;12.25;8.55;;;-5.30;99.90;;;;;;5008854;28;20301;-75
2022/12/14 07:14:15;;;;;;;7.30;6.70;;;-5.30;99.90;;;;;;5008238;28;20042;-75
2022/12/14 07:16:43;;;;;;;6.03;5.53;;;-5.30;99.90;;;;;;5008043;28;20057;-75
2022/12/14 07:19:16;;;;;;;8.32;7.13;;;-5.30;99.90;;;;;;4993754;28;20050;-75
2022/12/14 07:21:46;;;;;;;17.63;11.60;;;-5.30;99.90;;;;;;5027889;28;20041;-75
2022/12/14 07:24:14;;;;;;;14.10;10.90;;;-5.30;99.90;;;;;;5027526;28;20045;-75
2022/12/14 07:26:42;;;;;;;14.40;8.90;;;-5.30;99.90;;;;;;5027560;28;20048;-74
2022/12/14 07:29:10;;;;;;;23.00;10.65;;;-5.30;99.90;;;;;;5027127;28;20044;-75
2022/12/14 07:31:38;;;;;;;23.20;12.48;;;-5.30;99.90;;;;;;5026244;28;20049;-75
2022/12/14 07:34:06;;;;;;;15.93;12.40;;;-5.30;99.90;;;;;;5010057;28;20046;-75
2022/12/14 07:36:33;;;;;;;10.85;9.38;;;-5.30;99.90;;;;;;5028162;28;20045;-75
2022/12/14 07:39:01;;;;;;;14.57;13.30;;;-5.30;99.90;;;;;;5015876;28;20766;-75
2022/12/14 07:41:32;;;;;;;17.88;11.10;;;-5.30;99.90;;;;;;5006952;28;20521;-75
2022/12/14 07:44:00;;;;;;;24.50;9.55;;;-5.30;99.90;;;;;;5006039;28;20053;-75
2022/12/14 07:46:30;;;;;;;13.05;11.25;;;-5.20;99.90;;;;;;5008580;28;20449;-75
2022/12/14 07:48:59;;;;;;;12.85;9.57;;;-5.20;99.90;;;;;;5008392;28;20394;-75
2022/12/14 07:51:36;;;;;;;17.25;11.60;;;-5.10;99.90;;;;;;5001429;28;20050;-74
2022/12/14 07:54:06;;;;;;;13.13;9.38;;;-5.10;99.90;;;;;;4970636;28;20054;-75
2022/12/14 07:56:38;;;;;;;18.08;12.13;;;-5.00;99.90;;;;;;4989389;28;20054;-75
2022/12/14 07:59:09;;;;;;;15.02;10.10;;;-5.00;99.90;;;;;;4988159;28;20054;-75
2022/12/14 08:01:37;;;;;;;16.88;11.98;;;-4.90;99.90;;;;;;4988816;28;20085;-75
2022/12/14 08:04:10;;;;;;;21.05;11.07;;;-4.90;99.90;;;;;;4986966;28;20050;-74
2022/12/14 08:06:39;;;;;;;17.25;11.98;;;-4.90;99.90;;;;;;4989147;28;20073;-75
2022/12/14 08:09:08;;;;;;;8.75;8.02;;;-4.80;99.90;;;;;;4993072;28;20042;-75
2022/12/14 08:11:36;;;;;;;25.58;13.63;;;-4.90;99.90;;;;;;5008124;28;20561;-75
2022/12/14 08:14:06;;;;;;;14.48;9.38;;;-4.80;99.90;;;;;;5002602;28;20334;-74
2022/12/14 08:16:33;;;;;;;32.92;20.20;;;-4.60;99.90;;;;;;5008439;28;20052;-75
2022/12/14 08:19:02;;;;;;;22.92;12.00;;;-4.60;99.90;;;;;;4988596;28;20061;-75
2022/12/14 08:21:30;;;;;;;22.33;17.30;;;-4.40;99.90;;;;;;5003126;28;20042;-75
2022/12/14 08:23:58;;;;;;;18.77;14.43;;;-4.30;99.90;;;;;;4997495;28;20259;-75
2022/12/14 08:26:26;;;;;;;12.57;11.23;;;-4.20;99.90;;;;;;4999952;28;20409;-75
2022/12/14 08:29:02;;;;;;;22.60;12.10;;;-4.20;99.90;;;;;;4997841;28;20042;-75
2022/12/14 08:31:30;;;;;;;17.83;10.10;;;-4.10;99.90;;;;;;5006713;28;20718;-75
2022/12/14 08:34:00;;;;;;;10.60;9.43;;;-4.10;99.90;;;;;;5000381;28;20054;-74
2022/12/14 08:36:31;;;;;;;14.68;10.27;;;-4.00;99.90;;;;;;5001060;28;20046;-75
2022/12/14 08:39:01;;;;;;;18.08;11.00;;;-4.10;99.90;;;;;;5003921;28;20073;-75
2022/12/14 08:41:29;;;;;;;24.50;15.32;;;-4.00;99.90;;;;;;5001446;28;20065;-75
2022/12/14 08:43:59;;;;;;;27.77;18.88;;;-3.80;99.90;;;;;;5002369;28;20869;-75
2022/12/14 08:46:29;;;;;;;17.92;12.82;;;-3.60;99.90;;;;;;5003191;28;20958;-75
2022/12/14 08:48:57;;;;;;;18.00;11.05;;;-3.40;99.90;;;;;;5007838;28;20060;-75
2022/12/14 08:51:25;;;;;;;16.13;12.05;;;-3.30;99.90;;;;;;5007395;28;20417;-75
2022/12/14 08:53:54;;;;;;;20.85;13.02;;;-3.20;99.90;;;;;;4987044;28;20043;-75
2022/12/14 08:56:24;;;;;;;20.45;14.93;;;-3.00;99.90;;;;;;4992139;28;20061;-75
2022/12/14 08:58:53;;;;;;;26.97;17.80;;;-3.00;99.90;;;;;;5006858;28;20060;-75
2022/12/14 09:01:23;;;;;;;16.15;11.75;;;-3.00;99.90;;;;;;5006667;28;20046;-75
2022/12/14 09:04:06;;;;;;;18.27;11.07;;;-3.00;99.90;;;;;;5007066;28;20049;-75
2022/12/14 09:06:37;;;;;;;20.52;13.95;;;-3.10;99.90;;;;;;5005928;28;20054;-75
2022/12/14 09:09:06;;;;;;;14.98;11.45;;;-3.00;99.90;;;;;;5006612;28;20049;-75
2022/12/14 09:11:43;;;;;;;14.80;11.45;;;-3.00;99.90;;;;;;5006686;28;20050;-76
2022/12/14 09:14:10;;;;;;;21.17;12.82;;;-3.00;99.90;;;;;;4999290;28;20053;-75
2022/12/14 09:16:39;;;;;;;17.02;10.40;;;-3.00;99.90;;;;;;4988947;28;20065;-75
2022/12/14 09:19:07;;;;;;;12.45;10.90;;;-2.80;99.90;;;;;;5013794;28;20061;-75
2022/12/14 09:21:34;;;;;;;18.25;11.25;;;-2.70;99.90;;;;;;4987977;28;20058;-75
2022/12/14 09:24:04;;;;;;;15.30;10.20;;;-2.60;99.90;;;;;;5005480;28;20052;-75
2022/12/14 09:26:32;;;;;;;13.90;10.25;;;-2.60;99.90;;;;;;5004051;28;20058;-75
2022/12/14 09:29:00;;;;;;;14.85;11.65;;;-2.40;99.90;;;;;;4999725;28;20034;-75
2022/12/14 09:31:28;;;;;;;19.48;9.65;;;-2.20;99.90;;;;;;5002596;28;20054;-75
2022/12/14 09:33:55;;;;;;;23.60;11.25;;;-2.10;99.90;;;;;;5002596;28;20057;-75
2022/12/14 09:36:26;;;;;;;17.98;11.02;;;-2.20;99.90;;;;;;5005491;28;20049;-75
2022/12/14 09:38:55;;;;;;;14.00;8.07;;;-2.20;99.90;;;;;;5004467;28;20057;-75
2022/12/14 09:41:35;;;;;;;20.17;9.68;;;-2.20;99.90;;;;;;5005592;28;20057;-75
2022/12/14 09:44:24;;;;;;;15.90;9.43;;;-2.30;99.90;;;;;;5002059;28;20046;-75
2022/12/14 09:46:57;;;;;;;15.63;10.25;;;-2.30;99.90;;;;;;5005494;28;20053;-74
2022/12/14 09:49:39;;;;;;;15.88;10.77;;;-2.50;99.90;;;;;;5000116;28;20049;-75
2022/12/14 09:52:14;;;;;;;13.95;9.45;;;-2.70;99.90;;;;;;4993403;28;20050;-75
2022/12/14 09:54:44;;;;;;;17.90;9.95;;;-2.80;99.90;;;;;;4995332;28;20065;-75
2022/12/14 09:57:47;;;;;;;18.98;11.43;;;-2.90;99.90;;;;;;4995481;28;20054;-75
2022/12/14 10:00:18;;;;;;;18.40;11.68;;;-2.90;99.90;;;;;;4979449;28;20076;-75
2022/12/14 10:02:58;;;;;;;18.88;8.85;;;-2.90;99.90;;;;;;5000572;28;20073;-75
2022/12/14 10:05:59;;;;;;;14.70;10.20;;;-2.90;99.90;;;;;;4985919;28;20769;-75
2022/12/14 10:08:34;;;;;;;14.05;10.95;;;-2.90;99.90;;;;;;4988910;28;20473;-75
2022/12/14 10:11:30;;;;;;;16.23;11.15;;;-3.00;99.90;;;;;;4999455;28;20073;-75
2022/12/14 10:14:16;;;;;;;10.88;6.35;;;-2.90;99.90;;;;;;4999700;28;20076;-75
2022/12/14 10:17:05;;;;;;;18.02;12.15;;;-2.90;99.90;;;;;;5003921;28;20061;-74
2022/12/14 10:19:40;;;;;;;17.00;10.45;;;-2.90;99.90;;;;;;4990492;28;20053;-75
2022/12/14 10:22:18;;;;;;;16.42;9.13;;;-2.80;99.90;;;;;;5012472;28;20064;-75
2022/12/14 10:25:11;;;;;;;27.30;15.07;;;-2.70;99.90;;;;;;4988299;28;20061;-74
2022/12/14 10:27:44;;;;;;;14.75;9.57;;;-2.60;99.90;;;;;;4978015;28;20054;-75
2022/12/14 10:30:32;;;;;;;17.48;11.93;;;-2.50;99.90;;;;;;4984203;28;20054;-75
2022/12/14 10:33:28;;;;;;;10.65;9.50;;;-2.40;99.90;;;;;;4993642;28;20050;-75
2022/12/14 10:36:17;;;;;;;17.98;11.82;;;-2.30;99.90;;;;;;4993458;28;20065;-75
2022/12/14 10:38:58;;;;;;;7.32;6.22;;;-2.40;99.90;;;;;;4995248;28;20058;-75
2022/12/14 10:41:54;;;;;;;14.57;10.65;;;-2.40;99.90;;;;;;4987520;28;20532;-75
2022/12/14 10:44:29;;;;;;;15.48;11.25;;;-2.20;99.90;;;;;;5003152;28;20048;-75
2022/12/14 10:47:23;;;;;;;15.63;9.90;;;-2.20;99.90;;;;;;5002915;28;20281;-75
2022/12/14 10:50:05;;;;;;;16.60;10.90;;;-2.10;99.90;;;;;;4986407;28;20054;-75
2022/12/14 10:52:40;;;;;;;18.08;11.70;;;-1.90;99.90;;;;;;5001004;28;20046;-75
2022/12/14 10:55:38;;;;;;;17.80;10.23;;;-1.90;99.90;;;;;;5005561;28;20058;-75
2022/12/14 10:58:07;;;;;;;15.68;9.32;;;-1.90;99.90;;;;;;5013314;28;20081;-75
2022/12/14 11:00:35;;;;;;;11.05;9.70;;;-1.90;99.90;;;;;;5004650;28;20042;-74
2022/12/14 11:03:11;;;;;;;15.85;11.75;;;-1.90;99.90;;;;;;5005045;28;20060;-75
2022/12/14 11:05:50;;;;;;;13.85;6.13;;;-1.80;99.90;;;;;;5004462;28;20053;-75
2022/12/14 11:08:39;;;;;;;16.60;9.90;;;-1.70;99.90;;;;;;5002353;28;20298;-75
2022/12/14 11:11:09;;;;;;;9.55;7.55;;;-1.70;99.90;;;;;;5003541;28;20053;-75
2022/12/14 11:13:50;;;;;;;12.98;9.35;;;-1.60;99.90;;;;;;5001553;28;20049;-75
2022/12/14 11:16:23;;;;;;;14.88;11.43;;;-1.60;99.90;;;;;;5003839;28;20409;-74
2022/12/14 11:19:01;;;;;;;12.48;11.52;;;-1.70;99.90;;;;;;4999278;28;20053;-75
2022/12/14 11:21:32;;;;;;;15.00;9.77;;;-1.70;99.90;;;;;;5018916;28;20045;-75
2022/12/14 11:24:01;;;;;;;14.82;11.57;;;-1.60;99.90;;;;;;5002002;28;20465;-75
2022/12/14 11:26:34;;;;;;;14.05;10.60;;;-1.50;99.90;;;;;;5004421;28;20058;-75
2022/12/14 11:29:05;;;;;;;22.88;11.88;;;-1.60;99.90;;;;;;4982515;28;20061;-75
2022/12/14 11:31:39;;;;;;;14.18;10.00;;;-1.60;99.90;;;;;;4985430;28;20054;-76
2022/12/14 11:34:39;;;;;;;11.48;8.35;;;-1.70;99.90;;;;;;5000093;28;20088;-75
2022/12/14 11:37:28;;;;;;;12.45;10.02;;;-1.70;99.90;;;;;;5003258;28;20068;-75
2022/12/14 11:40:00;;;;;;;16.05;11.73;;;-1.80;99.90;;;;;;4983748;28;20042;-75
2022/12/14 11:42:28;;;;;;;16.33;8.02;;;-1.90;99.90;;;;;;4993971;28;20062;-76
2022/12/14 11:45:25;;;;;;;17.13;11.63;;;-2.00;99.90;;;;;;5002080;28;20065;-76
2022/12/14 11:48:29;;;;;;;16.27;10.27;;;-2.00;99.90;;;;;;5003250;28;20077;-77
2022/12/14 11:51:11;;;;;;;15.38;11.27;;;-2.00;99.90;;;;;;4959932;28;20054;-77
2022/12/14 11:53:39;;;;;;;;;;;-1.90;99.90;;;;;;4992669;28;20710;-77
2022/12/14 11:56:14;;;;;;;12.43;11.00;;;-1.90;99.90;;;;;;5004168;28;19992;-77
2022/12/14 11:58:52;;;;;;;7.07;6.40;;;-1.80;99.90;;;;;;5001624;28;20142;-78
2022/12/14 12:01:25;;;;;;;17.00;10.95;;;-1.80;99.90;;;;;;5000954;28;20049;-78
2022/12/14 12:03:57;;;;;;;8.75;8.02;;;-1.70;99.90;;;;;;5004153;28;20465;-78
2022/12/14 12:06:28;;;;;;;9.52;7.60;;;-1.70;99.90;;;;;;4987163;28;20741;-78
2022/12/14 12:08:59;;;;;;;13.00;8.02;;;-1.60;99.90;;;;;;4985401;28;20058;-78
2022/12/14 12:11:30;;;;;;;14.77;13.32;;;-1.50;99.90;;;;;;5004171;28;20054;-77
2022/12/14 12:14:05;;;;;;;13.23;11.13;;;-1.40;99.90;;;;;;4999482;28;20365;-77
2022/12/14 12:16:34;;;;;;;23.00;11.52;;;-1.30;99.90;;;;;;4986363;28;20061;-78
2022/12/14 12:19:34;;;;;;;17.60;10.18;;;-1.20;99.90;;;;;;5004444;28;20054;-78
2022/12/14 12:22:04;;;;;;;17.77;10.32;;;-1.20;99.90;;;;;;4995682;28;20498;-78
2022/12/14 12:24:42;;;;;;;17.58;12.15;;;-1.40;99.90;;;;;;5005547;28;20480;-78
2022/12/14 12:27:31;;;;;;;18.92;10.18;;;-1.40;99.90;;;;;;5005566;28;20049;-81
2022/12/14 12:30:05;;;;;;;15.60;11.57;;;-1.40;99.90;;;;;;5006888;28;20848;-78
2022/12/14 12:32:44;;;;;;;15.90;11.23;;;-1.40;99.90;;;;;;5007180;28;20049;-78
2022/12/14 12:35:52;;;;;;;17.17;11.50;;;-1.50;99.90;;;;;;5008287;28;20061;-78
2022/12/14 12:38:50;;;;;;;61.25;38.28;;;-1.50;99.90;;;;;;5029825;28;20049;-79
2022/12/14 12:41:29;;;;;;;24.13;16.40;;;-1.50;99.90;;;;;;5007286;28;20046;-79
2022/12/14 12:44:21;;;;;;;16.67;10.27;;;-1.50;99.90;;;;;;4999538;28;20711;-79
2022/12/14 12:47:18;;;;;;;16.77;11.20;;;-1.50;99.90;;;;;;5004204;28;20385;-79
2022/12/14 12:50:13;;;;;;;52.72;40.00;;;-1.50;99.90;;;;;;5017358;28;20093;-79
2022/12/14 12:53:01;;;;;;;19.05;12.95;;;-1.50;99.90;;;;;;5007573;28;20785;-78
2022/12/14 12:55:39;;;;;;;14.70;12.38;;;-1.40;99.90;;;;;;5005162;28;20064;-81
2022/12/14 12:58:17;;;;;;;23.42;16.33;;;-1.40;99.90;;;;;;5004757;28;20473;-78
2022/12/14 13:00:54;;;;;;;25.60;18.02;;;-1.30;99.90;;;;;;5006838;28;20425;-79
2022/12/14 13:03:26;;;;;;;19.15;13.57;;;-1.30;99.90;;;;;;5007297;28;20054;-79
2022/12/14 13:06:00;;;;;;;18.83;12.82;;;-1.30;99.90;;;;;;5006221;28;20045;-81
2022/12/14 13:08:35;;;;;;;15.43;10.40;;;-1.20;99.90;;;;;;5004438;28;20057;-80
2022/12/14 13:11:15;;;;;;;28.10;16.33;;;-1.20;99.90;;;;;;5006448;28;20068;-80
2022/12/14 13:14:00;;;;;;;18.50;11.77;;;-1.20;99.90;;;;;;5005771;28;20061;-79
2022/12/14 13:16:35;;;;;;;18.33;12.30;;;-1.20;99.90;;;;;;5005730;28;20065;-80
2022/12/14 13:19:15;;;;;;;22.58;14.20;;;-1.20;99.90;;;;;;5005695;28;20053;-79
2022/12/14 13:22:03;;;;;;;18.23;10.80;;;-1.10;99.90;;;;;;5001637;28;20042;-79
2022/12/14 13:24:35;;;;;;;42.55;26.40;;;-1.10;99.90;;;;;;5003822;28;20245;-79
2022/12/14 13:27:20;;;;;;;29.17;19.90;;;-1.00;99.90;;;;;;5006803;28;20050;-80
2022/12/14 13:30:04;;;;;;;18.58;11.20;;;-0.90;99.90;;;;;;5003222;28;20285;-79